KRBW

Lowcountry Regional Airport

Walterboro, South Carolina, USA
METAR KRBW 212135Z AUTO 24007KT 10SM CLR 35/21 A2980 RMK AO2
Observed Flight Rules
Jun-21 @ 21:35 UTC (31 minutes ago) Visual Flight Rules
Wind Visibility Clouds
240° at 7 knots 10 miles
  • Clear skies
Temperatures Readings
Current 35°C / 95°F
Dewpoint 21°C / 70°F
Humidity 44%
Altimeter 29.8" Hg
Pressure 1009 hPa
Elevation 31
METAR KRBW 212135Z AUTO 24007KT 10SM CLR 35/21 A2980 RMK AO2
Observed Flight Rules
Jun-21 @ 21:35 UTC
(31 minutes ago)
VFR
Wind Visibility
240° at 7 knots 10 miles
Clouds
  • Clear skies
Temperature Dewpoint
35°C / 95°F 21°C / 70°F
Humidity Altimeter Pressure
44% 29.8" Hg 1009 hPa